createdAt,value
2023-02-27T00:00:22.859Z,100731.19
2023-02-27T00:02:51.677Z,100732.33
2023-02-27T00:05:19.599Z,100733.79
2023-02-27T00:07:46.584Z,100731.44
2023-02-27T00:10:14.408Z,100734.69
2023-02-27T00:12:42.430Z,100730.70
2023-02-27T00:15:18.394Z,100735.15
2023-02-27T00:17:45.738Z,100735.89
2023-02-27T00:20:16.801Z,100740.77
2023-02-27T00:22:45.058Z,100743.92
2023-02-27T00:25:12.772Z,100745.27
2023-02-27T00:27:40.094Z,100743.26
2023-02-27T00:30:09.754Z,100746.98
2023-02-27T00:32:36.995Z,100748.67
2023-02-27T00:35:05.847Z,100751.52
2023-02-27T00:37:32.804Z,100758.20
2023-02-27T00:39:59.744Z,100766.88
2023-02-27T00:42:28.439Z,100771.35
2023-02-27T00:44:55.296Z,100774.97
2023-02-27T00:47:22.337Z,100777.82
2023-02-27T00:49:49.185Z,100772.30
2023-02-27T00:52:16.247Z,100771.90
2023-02-27T00:54:43.095Z,100770.38
2023-02-27T00:57:09.971Z,100770.63
2023-02-27T00:59:38.136Z,100774.41
2023-02-27T01:02:05.164Z,100776.02
2023-02-27T01:04:33.244Z,100778.52
2023-02-27T01:07:00.402Z,100776.59
2023-02-27T01:09:27.460Z,100774.54
2023-02-27T01:11:54.414Z,100763.79
2023-02-27T01:14:21.767Z,100763.11
2023-02-27T01:16:49.638Z,100776.52
2023-02-27T01:19:16.791Z,100780.89
2023-02-27T01:21:44.566Z,100781.08
2023-02-27T01:24:12.852Z,100783.46
2023-02-27T01:26:40.818Z,100784.77
2023-02-27T01:29:07.869Z,100781.23
2023-02-27T01:31:35.167Z,100780.08
2023-02-27T01:34:02.592Z,100780.68
2023-02-27T01:36:29.541Z,100785.11
2023-02-27T01:38:56.487Z,100783.89
2023-02-27T01:41:23.441Z,100787.71
2023-02-27T01:44:07.070Z,100783.67
2023-02-27T01:46:37.614Z,100784.52
2023-02-27T01:49:24.315Z,100785.42
2023-02-27T01:52:06.195Z,100789.44
2023-02-27T01:54:38.163Z,100790.03
2023-02-27T01:57:06.875Z,100791.06
2023-02-27T01:59:36.074Z,100792.31
2023-02-27T02:02:09.411Z,100793.73
2023-02-27T02:04:39.575Z,100793.68
2023-02-27T02:07:10.209Z,100794.38
2023-02-27T02:09:45.760Z,100797.23
2023-02-27T02:12:15.363Z,100798.29
2023-02-27T02:14:44.006Z,100799.10
2023-02-27T02:17:29.322Z,100799.66
2023-02-27T02:19:56.172Z,100799.98
2023-02-27T02:22:27.214Z,100803.19
2023-02-27T02:25:15.753Z,100804.42
2023-02-27T02:27:53.349Z,100800.20
2023-02-27T02:30:51.491Z,100799.94
2023-02-27T02:34:05.332Z,100805.74
2023-02-27T02:36:44.456Z,100807.61
2023-02-27T02:39:14.986Z,100813.39
2023-02-27T02:41:44.903Z,100814.54
2023-02-27T02:44:40.408Z,100821.52
2023-02-27T02:47:10.656Z,100827.75
2023-02-27T02:49:58.222Z,100832.42
2023-02-27T02:52:34.211Z,100836.30
2023-02-27T02:55:09.257Z,100840.06
2023-02-27T02:57:47.355Z,100841.63
2023-02-27T03:00:25.420Z,100841.33
2023-02-27T03:02:59.576Z,100845.99
2023-02-27T03:05:35.115Z,100846.98
2023-02-27T03:08:16.299Z,100852.45
2023-02-27T03:10:49.920Z,100854.19
2023-02-27T03:13:37.824Z,100858.27
2023-02-27T03:17:14.302Z,100861.06
2023-02-27T03:19:56.818Z,100866.31
2023-02-27T03:22:38.617Z,100868.27
2023-02-27T03:25:10.660Z,100871.42
2023-02-27T03:28:11.288Z,100874.08
2023-02-27T03:30:45.177Z,100883.85
2023-02-27T03:33:30.294Z,100887.10
2023-02-27T03:36:08.048Z,100886.38
2023-02-27T03:38:57.754Z,100891.27
2023-02-27T03:41:42.885Z,100893.92
2023-02-27T03:44:34.042Z,100893.41
2023-02-27T03:47:01.049Z,100891.45
2023-02-27T03:49:28.468Z,100896.45
2023-02-27T03:51:55.407Z,100898.92
2023-02-27T03:54:27.997Z,100902.56
2023-02-27T03:57:04.480Z,100904.29
2023-02-27T03:59:32.844Z,100903.60
2023-02-27T04:02:02.096Z,100907.90
2023-02-27T04:04:32.179Z,100912.35
2023-02-27T04:07:35.977Z,100918.20
2023-02-27T04:10:24.529Z,100924.30
2023-02-27T04:13:16.546Z,100926.92
2023-02-27T04:15:55.324Z,100926.79
2023-02-27T04:18:27.992Z,100926.41
2023-02-27T04:21:06.419Z,100928.72
2023-02-27T04:23:51.683Z,100927.08
2023-02-27T04:26:30.618Z,100925.66
2023-02-27T04:29:15.427Z,100926.08
2023-02-27T04:31:47.221Z,100926.15
2023-02-27T04:34:28.349Z,100927.77
2023-02-27T04:36:59.044Z,100929.02
2023-02-27T04:39:33.119Z,100933.95
2023-02-27T04:42:13.420Z,100937.73
2023-02-27T04:44:42.087Z,100941.77
2023-02-27T04:47:11.531Z,100940.88
2023-02-27T04:49:46.043Z,100941.83
2023-02-27T04:52:24.960Z,100950.45
2023-02-27T04:55:00.193Z,100953.92
2023-02-27T04:57:43.195Z,100954.42
2023-02-27T05:00:14.111Z,100958.75
2023-02-27T05:02:47.995Z,100961.63
2023-02-27T05:05:22.350Z,100957.88
2023-02-27T05:07:57.007Z,100950.45
2023-02-27T05:10:36.261Z,100954.46
2023-02-27T05:13:22.761Z,100958.41
2023-02-27T05:17:44.792Z,100963.73
2023-02-27T05:20:13.461Z,100968.45
2023-02-27T05:22:56.681Z,100973.72
2023-02-27T05:25:41.491Z,100970.61
2023-02-27T05:28:17.038Z,100976.75
2023-02-27T05:30:59.591Z,100977.11
2023-02-27T05:33:43.945Z,100982.73
2023-02-27T05:36:25.112Z,100989.80
2023-02-27T05:38:58.566Z,100992.88
2023-02-27T05:41:32.053Z,100994.50
2023-02-27T05:44:10.729Z,101000.80
2023-02-27T05:46:41.871Z,101007.48
2023-02-27T05:49:33.995Z,101011.23
2023-02-27T05:52:05.200Z,101013.52
2023-02-27T05:54:35.162Z,101013.13
2023-02-27T05:57:05.768Z,101017.85
2023-02-27T05:59:47.380Z,101024.07
2023-02-27T06:02:14.571Z,101029.66
2023-02-27T06:04:41.907Z,101027.63
2023-02-27T06:07:09.463Z,101037.27
2023-02-27T06:09:36.628Z,101041.42
2023-02-27T06:12:03.570Z,101044.95
2023-02-27T06:14:30.523Z,101047.33
2023-02-27T06:16:57.474Z,101048.66
2023-02-27T06:19:24.843Z,101052.16
2023-02-27T06:21:51.792Z,101053.39
2023-02-27T06:24:19.382Z,101054.74
2023-02-27T06:26:47.529Z,101058.59
2023-02-27T06:29:14.785Z,101055.07
2023-02-27T06:31:41.728Z,101051.56
2023-02-27T06:34:08.680Z,101055.71
2023-02-27T06:36:35.532Z,101053.94
2023-02-27T06:39:02.482Z,101063.20
2023-02-27T06:41:29.336Z,101067.70
2023-02-27T06:43:56.785Z,101073.91
2023-02-27T06:46:24.564Z,101074.73
2023-02-27T06:48:51.610Z,101077.37
2023-02-27T06:51:18.456Z,101080.41
2023-02-27T06:53:45.307Z,101083.59
2023-02-27T06:56:12.158Z,101088.45
2023-02-27T06:58:39.102Z,101094.12
2023-02-27T07:01:06.070Z,101094.59
2023-02-27T07:03:33.784Z,101093.98
2023-02-27T07:06:00.771Z,101088.79
2023-02-27T07:08:27.727Z,101086.08
2023-02-27T07:10:54.671Z,101087.15
2023-02-27T07:13:21.621Z,101084.92
2023-02-27T07:15:48.601Z,101088.70
2023-02-27T07:18:15.525Z,101090.92
2023-02-27T07:20:43.098Z,101086.16
2023-02-27T07:23:10.976Z,101091.18
2023-02-27T07:25:37.910Z,101086.02
2023-02-27T07:28:05.328Z,101084.55
2023-02-27T07:30:32.323Z,101084.89
2023-02-27T07:32:59.282Z,101088.86
2023-02-27T07:35:26.219Z,101094.79
2023-02-27T07:37:53.173Z,101099.96
2023-02-27T07:40:20.135Z,101101.85
2023-02-27T07:42:52.996Z,101103.89
2023-02-27T07:45:20.186Z,101106.41
2023-02-27T07:47:47.129Z,101102.27
2023-02-27T07:50:16.939Z,101103.94
2023-02-27T07:52:44.619Z,101106.33
2023-02-27T07:55:13.229Z,101104.46
2023-02-27T07:57:40.144Z,101107.76
2023-02-27T08:00:09.929Z,101108.38
2023-02-27T08:02:40.325Z,101107.45
2023-02-27T08:05:10.999Z,101109.86
2023-02-27T08:07:37.991Z,101111.04
2023-02-27T08:10:06.218Z,101112.02
2023-02-27T08:12:33.619Z,101110.72
2023-02-27T08:15:00.685Z,101115.38
2023-02-27T08:17:27.628Z,101116.60
2023-02-27T08:19:54.576Z,101120.61
2023-02-27T08:22:21.824Z,101127.27
2023-02-27T08:24:48.678Z,101126.89
2023-02-27T08:27:15.542Z,101130.08
2023-02-27T08:29:43.700Z,101136.30
2023-02-27T08:32:10.995Z,101140.19
2023-02-27T08:34:38.009Z,101141.50
2023-02-27T08:37:04.959Z,101146.84
2023-02-27T08:39:32.125Z,101156.30
2023-02-27T08:41:58.957Z,101157.58
2023-02-27T08:44:25.750Z,101162.52
2023-02-27T08:46:52.666Z,101164.09
2023-02-27T08:49:25.240Z,101162.09
2023-02-27T08:51:52.494Z,101161.59
2023-02-27T08:54:19.857Z,101161.94
2023-02-27T08:56:48.029Z,101168.30
2023-02-27T08:59:15.592Z,101173.16
2023-02-27T09:01:42.853Z,101176.17
2023-02-27T09:04:10.022Z,101178.52
2023-02-27T09:06:37.685Z,101183.64
2023-02-27T09:09:06.760Z,101184.78
2023-02-27T09:11:34.241Z,101186.74
2023-02-27T09:14:01.310Z,101187.63
2023-02-27T09:16:28.683Z,101189.80
2023-02-27T09:18:55.940Z,101193.85
2023-02-27T09:21:23.987Z,101192.08
2023-02-27T09:23:53.283Z,101193.13
2023-02-27T09:26:21.681Z,101192.58
2023-02-27T09:28:50.269Z,101198.70
2023-02-27T09:31:18.001Z,101199.79
2023-02-27T09:33:45.087Z,101204.83
2023-02-27T09:36:12.461Z,101208.36
2023-02-27T09:38:41.318Z,101210.64
2023-02-27T09:41:27.519Z,101219.46
2023-02-27T09:43:54.987Z,101224.44
2023-02-27T09:46:25.823Z,101225.95
2023-02-27T09:49:01.437Z,101226.47
2023-02-27T09:51:29.922Z,101232.10
2023-02-27T09:54:02.439Z,101238.14
2023-02-27T09:56:40.751Z,101242.41
2023-02-27T09:59:36.276Z,101244.60
2023-02-27T10:02:08.753Z,101245.04
2023-02-27T10:05:04.838Z,101248.32
2023-02-27T10:07:53.178Z,101245.81
2023-02-27T10:10:37.736Z,101248.09
2023-02-27T10:13:28.847Z,101247.85
2023-02-27T10:15:57.405Z,101252.76
2023-02-27T10:18:33.645Z,101252.77
2023-02-27T10:21:06.987Z,101256.96
2023-02-27T10:23:56.753Z,101262.41
2023-02-27T10:26:31.368Z,101267.39
2023-02-27T10:29:02.943Z,101268.06
2023-02-27T10:31:33.904Z,101270.47
2023-02-27T10:34:01.958Z,101270.58
2023-02-27T10:36:34.166Z,101272.98
2023-02-27T10:39:07.047Z,101268.40
2023-02-27T10:41:36.647Z,101267.98
2023-02-27T10:44:04.103Z,101272.27
2023-02-27T10:46:35.963Z,101275.06
2023-02-27T10:49:13.792Z,101276.96
2023-02-27T10:51:40.908Z,101276.36
2023-02-27T10:54:19.919Z,101272.95
2023-02-27T10:56:56.850Z,101275.97
2023-02-27T10:59:38.744Z,101276.88
2023-02-27T11:02:18.034Z,101274.46
2023-02-27T11:04:55.413Z,101275.88
2023-02-27T11:07:36.540Z,101273.37
2023-02-27T11:10:15.807Z,101278.94
2023-02-27T11:12:57.201Z,101281.16
2023-02-27T11:15:27.313Z,101278.55
2023-02-27T11:17:55.392Z,101286.14
2023-02-27T11:20:39.741Z,101290.66
2023-02-27T11:23:18.268Z,101293.27
2023-02-27T11:25:45.377Z,101291.02
2023-02-27T11:28:14.245Z,101288.48
2023-02-27T11:30:43.954Z,101289.60
2023-02-27T11:33:19.199Z,101288.93
2023-02-27T11:35:57.856Z,101290.61
2023-02-27T11:38:31.551Z,101292.41
2023-02-27T11:41:04.453Z,101289.17
2023-02-27T11:43:49.428Z,101291.02
2023-02-27T11:46:47.295Z,101287.64
2023-02-27T11:49:35.139Z,101291.35
2023-02-27T11:52:17.887Z,101292.64
2023-02-27T11:54:58.102Z,101290.95
2023-02-27T11:57:39.566Z,101291.38
2023-02-27T12:00:20.023Z,101295.02
2023-02-27T12:02:56.051Z,101295.85
2023-02-27T12:05:30.871Z,101298.80
2023-02-27T12:08:05.991Z,101299.97
2023-02-27T12:10:48.556Z,101298.10
2023-02-27T12:13:21.660Z,101300.04
2023-02-27T12:16:09.261Z,101300.05
2023-02-27T12:18:45.140Z,101298.58
2023-02-27T12:21:16.875Z,101297.53
2023-02-27T12:23:50.051Z,101301.61
2023-02-27T12:26:30.002Z,101305.02
2023-02-27T12:29:09.608Z,101304.30
2023-02-27T12:31:45.016Z,101302.92
2023-02-27T12:34:12.268Z,101308.65
2023-02-27T12:36:39.401Z,101308.10
2023-02-27T12:39:15.440Z,101312.10
2023-02-27T12:42:20.697Z,101310.38
2023-02-27T12:44:56.541Z,101311.23
2023-02-27T12:47:28.906Z,101314.43
2023-02-27T12:50:24.201Z,101312.38
2023-02-27T12:53:10.092Z,101315.42
2023-02-27T12:55:49.736Z,101319.26
2023-02-27T12:58:38.589Z,101320.87
2023-02-27T13:01:22.095Z,101321.30
2023-02-27T13:03:59.814Z,101324.00
2023-02-27T13:07:05.880Z,101320.98
2023-02-27T13:09:56.195Z,101318.73
2023-02-27T13:12:48.521Z,101319.89
2023-02-27T13:15:15.434Z,101325.54
2023-02-27T13:17:55.124Z,101322.88
2023-02-27T13:20:21.924Z,101322.80
2023-02-27T13:22:53.374Z,101323.72
2023-02-27T13:25:21.466Z,101325.98
2023-02-27T13:27:54.313Z,101323.45
2023-02-27T13:30:27.743Z,101326.75
2023-02-27T13:33:16.180Z,101328.42
2023-02-27T13:35:46.102Z,101329.61
2023-02-27T13:38:34.909Z,101330.48
2023-02-27T13:41:28.433Z,101335.48
2023-02-27T13:43:57.196Z,101335.04
2023-02-27T13:46:31.776Z,101338.17
2023-02-27T13:49:05.092Z,101337.67
2023-02-27T13:51:35.116Z,101333.20
2023-02-27T13:54:14.545Z,101335.60
2023-02-27T13:57:07.700Z,101335.27
2023-02-27T13:59:42.456Z,101338.06
2023-02-27T14:02:12.638Z,101340.56
2023-02-27T14:04:49.705Z,101339.71
2023-02-27T14:07:26.705Z,101336.59
2023-02-27T14:10:11.682Z,101338.70
2023-02-27T14:12:46.399Z,101340.80
2023-02-27T14:15:23.048Z,101340.27
2023-02-27T14:18:09.276Z,101343.65
2023-02-27T14:20:39.414Z,101345.02
2023-02-27T14:23:15.230Z,101347.11
2023-02-27T14:25:51.698Z,101345.20
2023-02-27T14:28:44.742Z,101347.31
2023-02-27T14:31:28.789Z,101349.68
2023-02-27T14:34:05.247Z,101351.35
2023-02-27T14:36:39.775Z,101356.73
2023-02-27T14:39:07.037Z,101357.81
2023-02-27T14:42:02.037Z,101359.15
2023-02-27T14:44:37.671Z,101359.43
2023-02-27T14:47:05.953Z,101357.00
2023-02-27T14:49:36.218Z,101358.19
2023-02-27T14:52:22.040Z,101365.31
2023-02-27T14:54:50.451Z,101367.94
2023-02-27T14:57:26.681Z,101367.23
2023-02-27T14:59:55.221Z,101368.42
2023-02-27T15:02:25.117Z,101373.15
2023-02-27T15:05:01.408Z,101371.66
2023-02-27T15:07:34.270Z,101371.86
2023-02-27T15:10:05.178Z,101374.08
2023-02-27T15:12:37.889Z,101378.60
2023-02-27T15:15:10.366Z,101382.98
2023-02-27T15:17:40.700Z,101384.70
2023-02-27T15:20:38.254Z,101388.73
2023-02-27T15:23:28.831Z,101387.29
2023-02-27T15:25:58.445Z,101391.73
2023-02-27T15:28:37.775Z,101396.11
2023-02-27T15:31:07.479Z,101398.44
2023-02-27T15:33:34.757Z,101399.43
2023-02-27T15:36:02.218Z,101400.56
2023-02-27T15:38:31.218Z,101405.48
2023-02-27T15:41:00.008Z,101407.77
2023-02-27T15:43:28.957Z,101412.06
2023-02-27T15:45:58.497Z,101414.87
2023-02-27T15:48:26.287Z,101421.44
2023-02-27T15:51:02.391Z,101423.89
2023-02-27T15:53:34.189Z,101431.64
2023-02-27T15:56:06.373Z,101438.19
2023-02-27T15:58:46.993Z,101443.55
2023-02-27T16:01:19.930Z,101447.65
2023-02-27T16:03:49.662Z,101452.51
2023-02-27T16:06:20.635Z,101451.73
2023-02-27T16:09:01.536Z,101457.96
2023-02-27T16:11:31.435Z,101460.93
2023-02-27T16:13:58.506Z,101464.64
2023-02-27T16:16:36.436Z,101470.98
2023-02-27T16:19:22.745Z,101474.38
2023-02-27T16:22:16.677Z,101475.82
2023-02-27T16:24:44.662Z,101477.85
2023-02-27T16:27:16.957Z,101478.31
2023-02-27T16:29:45.612Z,101480.43
2023-02-27T16:32:32.797Z,101484.45
2023-02-27T16:35:08.353Z,101484.54
2023-02-27T16:37:38.375Z,101490.57
2023-02-27T16:40:22.989Z,101497.04
2023-02-27T16:42:51.429Z,101502.89
2023-02-27T16:45:21.995Z,101501.90
2023-02-27T16:47:50.547Z,101504.59
2023-02-27T16:50:41.530Z,101508.21
2023-02-27T16:53:09.194Z,101511.51
2023-02-27T16:55:40.153Z,101511.34
2023-02-27T16:58:07.314Z,101515.80
2023-02-27T17:00:35.292Z,101520.61
2023-02-27T17:03:02.438Z,101523.45
2023-02-27T17:05:29.582Z,101527.91
2023-02-27T17:07:56.549Z,101530.41
2023-02-27T17:10:24.813Z,101532.38
2023-02-27T17:12:52.361Z,101538.81
2023-02-27T17:15:20.381Z,101536.77
2023-02-27T17:17:47.409Z,101539.66
2023-02-27T17:20:15.237Z,101545.45
2023-02-27T17:22:44.427Z,101547.77
2023-02-27T17:25:12.564Z,101555.30
2023-02-27T17:27:41.756Z,101564.30
2023-02-27T17:30:09.753Z,101569.95
2023-02-27T17:32:36.891Z,101572.97
2023-02-27T17:35:04.555Z,101574.11
2023-02-27T17:37:31.821Z,101577.08
2023-02-27T17:39:59.052Z,101573.95
2023-02-27T17:42:26.435Z,101576.16
2023-02-27T17:44:53.890Z,101576.73
2023-02-27T17:47:21.169Z,101582.66
2023-02-27T17:49:48.554Z,101580.67
2023-02-27T17:52:15.973Z,101579.77
2023-02-27T17:54:43.046Z,101577.73
2023-02-27T17:57:12.240Z,101580.36
2023-02-27T17:59:40.777Z,101588.73
2023-02-27T18:02:10.325Z,101586.95
2023-02-27T18:04:37.495Z,101587.03
2023-02-27T18:07:04.645Z,101585.19
2023-02-27T18:09:32.148Z,101587.48
2023-02-27T18:11:59.149Z,101590.94
2023-02-27T18:14:26.614Z,101589.55
2023-02-27T18:16:53.878Z,101597.11
2023-02-27T18:19:20.922Z,101594.89
2023-02-27T18:21:47.970Z,101593.48
2023-02-27T18:24:18.301Z,101598.75
2023-02-27T18:26:45.801Z,101601.57
2023-02-27T18:29:14.314Z,101603.73
2023-02-27T18:31:46.703Z,101604.63
2023-02-27T18:34:14.005Z,101604.13
2023-02-27T18:36:41.045Z,101607.00
2023-02-27T18:39:09.120Z,101606.44
2023-02-27T18:41:37.275Z,101608.63
2023-02-27T18:44:05.384Z,101607.27
2023-02-27T18:46:33.389Z,101608.38
2023-02-27T18:49:01.320Z,101611.10
2023-02-27T18:51:29.298Z,101614.29
2023-02-27T18:53:57.062Z,101618.98
2023-02-27T18:56:25.711Z,101620.20
2023-02-27T18:58:54.054Z,101618.15
2023-02-27T19:01:25.580Z,101619.34
2023-02-27T19:04:00.669Z,101623.30
2023-02-27T19:06:28.489Z,101625.31
2023-02-27T19:08:56.053Z,101627.52
2023-02-27T19:11:33.393Z,101628.81
2023-02-27T19:14:02.882Z,101630.41
2023-02-27T19:16:30.665Z,101632.27
2023-02-27T19:19:00.028Z,101632.65
2023-02-27T19:21:27.778Z,101634.45
2023-02-27T19:23:54.846Z,101632.05
2023-02-27T19:26:23.458Z,101632.48
2023-02-27T19:28:55.124Z,101630.66
2023-02-27T19:31:24.582Z,101634.46
2023-02-27T19:33:51.865Z,101637.20
2023-02-27T19:36:21.218Z,101641.05
2023-02-27T19:38:48.517Z,101644.30
2023-02-27T19:41:19.467Z,101640.92
2023-02-27T19:43:47.646Z,101640.29
2023-02-27T19:46:18.332Z,101642.60
2023-02-27T19:48:45.637Z,101640.30
2023-02-27T19:51:14.659Z,101642.35
2023-02-27T19:53:46.108Z,101647.75
2023-02-27T19:56:16.250Z,101647.34
2023-02-27T19:58:44.313Z,101650.62
2023-02-27T20:01:12.661Z,101654.83
2023-02-27T20:03:43.810Z,101658.73
2023-02-27T20:06:23.348Z,101661.54
2023-02-27T20:08:51.019Z,101661.24
2023-02-27T20:11:20.000Z,101660.92
2023-02-27T20:13:48.649Z,101665.31
2023-02-27T20:16:19.592Z,101664.63
2023-02-27T20:18:46.714Z,101666.84
2023-02-27T20:21:17.101Z,101668.54
2023-02-27T20:23:45.639Z,101669.54
2023-02-27T20:26:22.692Z,101669.82
2023-02-27T20:28:52.303Z,101671.16
2023-02-27T20:31:22.227Z,101671.45
2023-02-27T20:33:50.603Z,101671.87
2023-02-27T20:36:17.969Z,101672.16
2023-02-27T20:38:45.440Z,101676.11
2023-02-27T20:41:18.162Z,101675.95
2023-02-27T20:43:45.780Z,101674.83
2023-02-27T20:46:19.432Z,101674.64
2023-02-27T20:48:50.859Z,101677.19
2023-02-27T20:51:22.958Z,101675.76
2023-02-27T20:53:53.505Z,101681.02
2023-02-27T20:56:26.709Z,101681.29
2023-02-27T20:58:54.819Z,101682.42
2023-02-27T21:01:22.388Z,101685.37
2023-02-27T21:03:52.326Z,101685.63
2023-02-27T21:06:20.406Z,101683.92
2023-02-27T21:08:49.678Z,101682.45
2023-02-27T21:11:23.782Z,101683.94
2023-02-27T21:13:51.042Z,101684.52
2023-02-27T21:16:20.736Z,101683.01
2023-02-27T21:18:51.934Z,101681.89
2023-02-27T21:21:25.505Z,101679.90
2023-02-27T21:23:52.991Z,101689.79
2023-02-27T21:26:27.706Z,101687.48
2023-02-27T21:29:07.962Z,101685.91
2023-02-27T21:31:37.041Z,101686.15
2023-02-27T21:34:07.338Z,101686.13
2023-02-27T21:36:42.602Z,101691.90
2023-02-27T21:39:13.356Z,101688.42
2023-02-27T21:41:41.581Z,101688.19
2023-02-27T21:44:12.025Z,101687.73
2023-02-27T21:46:39.226Z,101693.54
2023-02-27T21:49:06.986Z,101699.96
2023-02-27T21:51:40.358Z,101699.67
2023-02-27T21:54:10.753Z,101701.05
2023-02-27T21:56:38.387Z,101700.59
2023-02-27T21:59:05.939Z,101702.77
2023-02-27T22:01:33.964Z,101702.48
2023-02-27T22:04:02.196Z,101705.39
2023-02-27T22:06:34.179Z,101707.37
2023-02-27T22:09:05.133Z,101705.62
2023-02-27T22:11:34.251Z,101708.95
2023-02-27T22:14:01.990Z,101707.73
2023-02-27T22:16:29.041Z,101705.05
2023-02-27T22:18:56.066Z,101706.24
2023-02-27T22:21:25.520Z,101707.36
2023-02-27T22:23:53.285Z,101705.05
2023-02-27T22:26:24.455Z,101706.09
2023-02-27T22:28:53.631Z,101707.20
2023-02-27T22:31:25.681Z,101708.00
2023-02-27T22:33:55.642Z,101710.33
2023-02-27T22:36:25.872Z,101715.35
2023-02-27T22:38:53.276Z,101717.04
2023-02-27T22:41:23.759Z,101716.10
2023-02-27T22:43:51.494Z,101717.59
2023-02-27T22:46:28.396Z,101717.82
2023-02-27T22:49:01.824Z,101718.61
2023-02-27T22:51:30.700Z,101725.80
2023-02-27T22:54:00.342Z,101722.91
2023-02-27T22:56:28.232Z,101720.52
2023-02-27T22:58:55.389Z,101717.36
2023-02-27T23:01:26.666Z,101720.50
2023-02-27T23:03:56.760Z,101717.17
2023-02-27T23:06:27.081Z,101715.37
2023-02-27T23:08:54.446Z,101717.35
2023-02-27T23:11:22.003Z,101721.89
2023-02-27T23:13:50.394Z,101721.59
2023-02-27T23:16:17.719Z,101721.34
2023-02-27T23:18:51.198Z,101727.52
2023-02-27T23:21:20.546Z,101725.91
2023-02-27T23:23:48.035Z,101721.85
2023-02-27T23:26:14.986Z,101723.61
2023-02-27T23:28:42.946Z,101722.41
2023-02-27T23:31:10.201Z,101727.64
2023-02-27T23:33:37.456Z,101726.48
2023-02-27T23:36:04.967Z,101723.59
2023-02-27T23:38:32.382Z,101727.25
2023-02-27T23:41:09.694Z,101732.72
2023-02-27T23:43:36.924Z,101734.63
2023-02-27T23:46:14.707Z,101738.23
2023-02-27T23:48:42.636Z,101738.82
2023-02-27T23:51:11.747Z,101738.77
2023-02-27T23:53:40.589Z,101743.67
2023-02-27T23:56:26.358Z,101748.41
2023-02-27T23:58:59.020Z,101744.72
